ENNA

Details ICAO ENNA (LKL)
Name BANAK
Region Norway
Timezone Unknown (UTC+0.0)
Plans Departing 27
Arriving 22
Stats Elevation 25 ft / 8 m (AMSL)
Location 70.068813° 24.973489°
Runways 1
Magnetic Variation 12.389° E
Sunrise Unknown / Unknown
Sunset Unknown / Unknown
Advertisement - Login to hide

Runways

ID Width Length Bearing (true) Bearing (mag) Surface Threshold Offset Overrun Length
17 148 ft / 45 m 9,104 ft / 2,775 m 175.43° 163.04° Asphalt 302 ft / 92 m 0 ft / 0 m
35 148 ft / 45 m 9,104 ft / 2,775 m 355.44° 343.05° Asphalt 302 ft / 92 m 0 ft / 0 m

Approach Navaids

Runway Type Ident Frequency Range Bearing (true) Bearing (mag) Slope Elevation
17 Localiser BK 109.35 MHz 18 nm / 33 km 175.43° 163.04° - 25 ft / 8 m (AMSL)
17 DME BK 109.35 MHz 18 nm / 33 km - - - 55 ft / 17 m (AMSL)
35 Localiser BA 108.30 MHz 18 nm / 33 km 355.43° 343.04° - 25 ft / 8 m (AMSL)
35 Glidescope BA 108.30 MHz 10 nm / 19 km 355.43° 343.04° 3.50° 25 ft / 8 m (AMSL)

Map

Weather


0- 5 10 15 20 25 30 35+ Temperature / ° C

Clouds and Precipitation
Forecast for 2017-12-11 18:00 UTC. Updated 19 minutes ago

Ground ~20,000 ft ~40,000 ft Winds

METAR

ENNA 111720Z 18019G30KT 9999 FEW025 M01/M05 Q0998 RMK WIND 1800FT 18020KT

TAF

TAF ENNA 111100Z 1112/1212 18009KT CAVOK TEMPO 1112/1206 18030G40KT

Frequencies

Tower 118.90 MHz TWR
Tower 118.05 MHz TWR
Tower 122.10 MHz TWR
Warning: Do not use this data for real-world aviation or navigation. No guarantee of current accuracy is given.